sensor_id;sensor_type;location;lat;lon;timestamp;P1;durP1;ratioP1;P2;durP2;ratioP2
49730;SDS011;35622;52.008;5.426;2024-01-10T00:01:08;3.17;;;1.90;;
49730;SDS011;35622;52.008;5.426;2024-01-10T00:03:33;3.73;;;2.20;;
49730;SDS011;35622;52.008;5.426;2024-01-10T00:05:59;4.43;;;2.10;;
49730;SDS011;35622;52.008;5.426;2024-01-10T00:08:27;5.10;;;2.30;;
49730;SDS011;35622;52.008;5.426;2024-01-10T00:10:53;3.63;;;2.00;;
49730;SDS011;35622;52.008;5.426;2024-01-10T00:13:19;4.77;;;2.50;;
49730;SDS011;35622;52.008;5.426;2024-01-10T00:15:46;3.57;;;2.10;;
49730;SDS011;35622;52.008;5.426;2024-01-10T00:18:12;4.57;;;2.40;;
49730;SDS011;35622;52.008;5.426;2024-01-10T00:20:38;4.90;;;2.50;;
49730;SDS011;35622;52.008;5.426;2024-01-10T00:23:04;4.43;;;2.60;;
49730;SDS011;35622;52.008;5.426;2024-01-10T00:25:31;5.63;;;2.67;;
49730;SDS011;35622;52.008;5.426;2024-01-10T00:27:57;4.73;;;2.50;;
49730;SDS011;35622;52.008;5.426;2024-01-10T00:30:23;4.03;;;2.17;;
49730;SDS011;35622;52.008;5.426;2024-01-10T00:32:49;4.40;;;2.30;;
49730;SDS011;35622;52.008;5.426;2024-01-10T00:35:15;5.77;;;2.27;;
49730;SDS011;35622;52.008;5.426;2024-01-10T00:37:40;5.07;;;2.33;;
49730;SDS011;35622;52.008;5.426;2024-01-10T00:40:06;3.30;;;1.93;;
49730;SDS011;35622;52.008;5.426;2024-01-10T00:42:32;5.33;;;2.63;;
49730;SDS011;35622;52.008;5.426;2024-01-10T00:44:58;4.40;;;2.07;;
49730;SDS011;35622;52.008;5.426;2024-01-10T00:47:24;3.83;;;2.50;;
49730;SDS011;35622;52.008;5.426;2024-01-10T00:49:49;3.93;;;2.10;;
49730;SDS011;35622;52.008;5.426;2024-01-10T00:52:15;4.60;;;2.37;;
49730;SDS011;35622;52.008;5.426;2024-01-10T00:54:41;5.20;;;2.57;;
49730;SDS011;35622;52.008;5.426;2024-01-10T00:57:06;5.67;;;2.60;;
49730;SDS011;35622;52.008;5.426;2024-01-10T00:59:32;5.30;;;2.57;;
49730;SDS011;35622;52.008;5.426;2024-01-10T01:01:57;4.07;;;2.67;;
49730;SDS011;35622;52.008;5.426;2024-01-10T01:04:23;3.60;;;2.27;;
49730;SDS011;35622;52.008;5.426;2024-01-10T01:06:48;4.77;;;2.40;;
49730;SDS011;35622;52.008;5.426;2024-01-10T01:09:14;4.67;;;2.70;;
49730;SDS011;35622;52.008;5.426;2024-01-10T01:11:40;5.27;;;2.60;;
49730;SDS011;35622;52.008;5.426;2024-01-10T01:14:06;6.47;;;2.70;;
49730;SDS011;35622;52.008;5.426;2024-01-10T01:16:32;5.00;;;2.57;;
49730;SDS011;35622;52.008;5.426;2024-01-10T01:18:58;4.30;;;2.30;;
49730;SDS011;35622;52.008;5.426;2024-01-10T01:21:24;5.03;;;2.47;;
49730;SDS011;35622;52.008;5.426;2024-01-10T01:23:49;5.07;;;2.13;;
49730;SDS011;35622;52.008;5.426;2024-01-10T01:26:15;3.73;;;2.10;;
49730;SDS011;35622;52.008;5.426;2024-01-10T01:28:41;3.97;;;2.27;;
49730;SDS011;35622;52.008;5.426;2024-01-10T01:31:06;5.83;;;2.70;;
49730;SDS011;35622;52.008;5.426;2024-01-10T01:33:32;5.33;;;2.43;;
49730;SDS011;35622;52.008;5.426;2024-01-10T01:35:57;6.33;;;3.03;;
49730;SDS011;35622;52.008;5.426;2024-01-10T01:38:23;3.90;;;2.53;;
49730;SDS011;35622;52.008;5.426;2024-01-10T01:40:49;4.37;;;2.20;;
49730;SDS011;35622;52.008;5.426;2024-01-10T01:43:22;5.13;;;2.77;;
49730;SDS011;35622;52.008;5.426;2024-01-10T01:45:51;5.77;;;2.40;;
49730;SDS011;35622;52.008;5.426;2024-01-10T01:48:19;5.57;;;2.73;;
49730;SDS011;35622;52.008;5.426;2024-01-10T01:50:45;6.20;;;2.20;;
49730;SDS011;35622;52.008;5.426;2024-01-10T01:53:13;5.60;;;2.73;;
49730;SDS011;35622;52.008;5.426;2024-01-10T01:55:40;5.00;;;2.77;;
49730;SDS011;35622;52.008;5.426;2024-01-10T01:58:08;5.30;;;2.67;;
49730;SDS011;35622;52.008;5.426;2024-01-10T02:00:34;4.37;;;2.53;;
49730;SDS011;35622;52.008;5.426;2024-01-10T02:03:00;4.27;;;2.33;;
49730;SDS011;35622;52.008;5.426;2024-01-10T02:05:27;4.37;;;2.83;;
49730;SDS011;35622;52.008;5.426;2024-01-10T02:07:53;5.33;;;2.63;;
49730;SDS011;35622;52.008;5.426;2024-01-10T02:10:20;4.03;;;2.47;;
49730;SDS011;35622;52.008;5.426;2024-01-10T02:12:46;6.07;;;2.90;;
49730;SDS011;35622;52.008;5.426;2024-01-10T02:15:12;7.23;;;2.67;;
49730;SDS011;35622;52.008;5.426;2024-01-10T02:17:38;5.20;;;2.50;;
49730;SDS011;35622;52.008;5.426;2024-01-10T02:20:14;5.80;;;2.43;;
49730;SDS011;35622;52.008;5.426;2024-01-10T02:22:42;3.87;;;2.67;;
49730;SDS011;35622;52.008;5.426;2024-01-10T02:25:08;6.23;;;3.07;;
49730;SDS011;35622;52.008;5.426;2024-01-10T02:27:35;4.27;;;2.50;;
49730;SDS011;35622;52.008;5.426;2024-01-10T02:30:04;4.33;;;2.60;;
49730;SDS011;35622;52.008;5.426;2024-01-10T02:32:31;4.60;;;2.67;;
49730;SDS011;35622;52.008;5.426;2024-01-10T02:34:57;5.83;;;2.63;;
49730;SDS011;35622;52.008;5.426;2024-01-10T02:37:23;5.07;;;2.80;;
49730;SDS011;35622;52.008;5.426;2024-01-10T02:39:49;8.33;;;2.67;;
49730;SDS011;35622;52.008;5.426;2024-01-10T02:42:15;6.10;;;3.17;;
49730;SDS011;35622;52.008;5.426;2024-01-10T02:44:41;4.33;;;2.43;;
49730;SDS011;35622;52.008;5.426;2024-01-10T02:47:06;4.63;;;2.30;;
49730;SDS011;35622;52.008;5.426;2024-01-10T02:49:32;4.47;;;2.60;;
49730;SDS011;35622;52.008;5.426;2024-01-10T02:51:59;6.47;;;3.13;;
49730;SDS011;35622;52.008;5.426;2024-01-10T02:54:25;5.17;;;2.50;;
49730;SDS011;35622;52.008;5.426;2024-01-10T02:56:51;3.83;;;2.37;;
49730;SDS011;35622;52.008;5.426;2024-01-10T02:59:16;6.17;;;3.20;;
49730;SDS011;35622;52.008;5.426;2024-01-10T03:01:42;4.47;;;2.60;;
49730;SDS011;35622;52.008;5.426;2024-01-10T03:04:08;5.43;;;3.20;;
49730;SDS011;35622;52.008;5.426;2024-01-10T03:06:34;4.33;;;2.87;;
49730;SDS011;35622;52.008;5.426;2024-01-10T03:08:59;5.00;;;2.70;;
49730;SDS011;35622;52.008;5.426;2024-01-10T03:11:25;4.53;;;2.50;;
49730;SDS011;35622;52.008;5.426;2024-01-10T03:13:53;5.77;;;2.47;;
49730;SDS011;35622;52.008;5.426;2024-01-10T03:16:27;6.07;;;3.00;;
49730;SDS011;35622;52.008;5.426;2024-01-10T03:18:52;4.43;;;2.83;;
49730;SDS011;35622;52.008;5.426;2024-01-10T03:21:18;5.23;;;2.77;;
49730;SDS011;35622;52.008;5.426;2024-01-10T03:23:50;6.03;;;2.90;;
49730;SDS011;35622;52.008;5.426;2024-01-10T03:26:16;4.90;;;3.20;;
49730;SDS011;35622;52.008;5.426;2024-01-10T03:28:42;8.97;;;3.23;;
49730;SDS011;35622;52.008;5.426;2024-01-10T03:31:07;5.53;;;2.77;;
49730;SDS011;35622;52.008;5.426;2024-01-10T03:33:36;4.53;;;2.67;;
49730;SDS011;35622;52.008;5.426;2024-01-10T03:36:01;5.20;;;2.63;;
49730;SDS011;35622;52.008;5.426;2024-01-10T03:38:27;7.37;;;3.03;;
49730;SDS011;35622;52.008;5.426;2024-01-10T03:40:53;4.87;;;2.80;;
49730;SDS011;35622;52.008;5.426;2024-01-10T03:43:19;5.17;;;3.00;;
49730;SDS011;35622;52.008;5.426;2024-01-10T03:45:44;6.00;;;3.30;;
49730;SDS011;35622;52.008;5.426;2024-01-10T03:48:10;5.03;;;3.00;;
49730;SDS011;35622;52.008;5.426;2024-01-10T03:50:36;6.00;;;3.13;;
49730;SDS011;35622;52.008;5.426;2024-01-10T03:53:01;6.10;;;3.07;;
49730;SDS011;35622;52.008;5.426;2024-01-10T03:55:27;5.13;;;2.93;;
49730;SDS011;35622;52.008;5.426;2024-01-10T03:57:52;5.23;;;3.20;;
49730;SDS011;35622;52.008;5.426;2024-01-10T04:00:18;5.80;;;2.97;;
49730;SDS011;35622;52.008;5.426;2024-01-10T04:02:44;5.93;;;3.00;;
49730;SDS011;35622;52.008;5.426;2024-01-10T04:05:09;5.47;;;3.47;;
49730;SDS011;35622;52.008;5.426;2024-01-10T04:07:37;5.60;;;3.07;;
49730;SDS011;35622;52.008;5.426;2024-01-10T04:10:06;5.40;;;2.87;;
49730;SDS011;35622;52.008;5.426;2024-01-10T04:12:35;6.47;;;2.87;;
49730;SDS011;35622;52.008;5.426;2024-01-10T04:15:02;4.97;;;3.00;;
49730;SDS011;35622;52.008;5.426;2024-01-10T04:17:29;5.73;;;2.93;;
49730;SDS011;35622;52.008;5.426;2024-01-10T04:19:55;5.40;;;3.07;;
49730;SDS011;35622;52.008;5.426;2024-01-10T04:22:20;6.10;;;3.20;;
49730;SDS011;35622;52.008;5.426;2024-01-10T04:24:46;6.70;;;3.27;;
49730;SDS011;35622;52.008;5.426;2024-01-10T04:27:12;6.73;;;3.57;;
49730;SDS011;35622;52.008;5.426;2024-01-10T04:29:37;5.67;;;2.93;;
49730;SDS011;35622;52.008;5.426;2024-01-10T04:32:03;5.23;;;3.13;;
49730;SDS011;35622;52.008;5.426;2024-01-10T04:34:29;5.03;;;2.50;;
49730;SDS011;35622;52.008;5.426;2024-01-10T04:36:54;5.77;;;3.10;;
49730;SDS011;35622;52.008;5.426;2024-01-10T04:39:20;6.60;;;3.63;;
49730;SDS011;35622;52.008;5.426;2024-01-10T04:41:46;9.03;;;3.97;;
49730;SDS011;35622;52.008;5.426;2024-01-10T04:44:11;6.00;;;3.13;;
49730;SDS011;35622;52.008;5.426;2024-01-10T04:46:37;5.70;;;2.80;;
49730;SDS011;35622;52.008;5.426;2024-01-10T04:49:02;8.97;;;3.37;;
49730;SDS011;35622;52.008;5.426;2024-01-10T04:51:28;6.20;;;2.80;;
49730;SDS011;35622;52.008;5.426;2024-01-10T04:53:54;5.27;;;3.03;;
49730;SDS011;35622;52.008;5.426;2024-01-10T04:56:20;4.23;;;2.50;;
49730;SDS011;35622;52.008;5.426;2024-01-10T04:58:46;6.40;;;3.20;;
49730;SDS011;35622;52.008;5.426;2024-01-10T05:01:11;4.87;;;2.90;;
49730;SDS011;35622;52.008;5.426;2024-01-10T05:03:37;6.17;;;3.27;;
49730;SDS011;35622;52.008;5.426;2024-01-10T05:06:03;5.17;;;3.00;;
49730;SDS011;35622;52.008;5.426;2024-01-10T05:08:29;5.13;;;2.80;;
49730;SDS011;35622;52.008;5.426;2024-01-10T05:10:55;8.33;;;3.40;;
49730;SDS011;35622;52.008;5.426;2024-01-10T05:13:21;5.50;;;3.20;;
49730;SDS011;35622;52.008;5.426;2024-01-10T05:15:46;6.20;;;3.37;;
49730;SDS011;35622;52.008;5.426;2024-01-10T05:18:12;6.07;;;3.37;;
49730;SDS011;35622;52.008;5.426;2024-01-10T05:20:38;5.70;;;3.20;;
49730;SDS011;35622;52.008;5.426;2024-01-10T05:23:03;5.60;;;2.97;;
49730;SDS011;35622;52.008;5.426;2024-01-10T05:25:29;5.63;;;2.90;;
49730;SDS011;35622;52.008;5.426;2024-01-10T05:27:54;5.50;;;2.97;;
49730;SDS011;35622;52.008;5.426;2024-01-10T05:30:20;5.43;;;3.17;;
49730;SDS011;35622;52.008;5.426;2024-01-10T05:32:46;7.97;;;3.43;;
49730;SDS011;35622;52.008;5.426;2024-01-10T05:35:11;4.13;;;3.23;;
49730;SDS011;35622;52.008;5.426;2024-01-10T05:37:37;5.73;;;3.23;;
49730;SDS011;35622;52.008;5.426;2024-01-10T05:40:03;7.67;;;3.67;;
49730;SDS011;35622;52.008;5.426;2024-01-10T05:42:31;5.97;;;3.10;;
49730;SDS011;35622;52.008;5.426;2024-01-10T05:44:58;5.23;;;2.80;;
49730;SDS011;35622;52.008;5.426;2024-01-10T05:47:24;5.93;;;3.13;;
49730;SDS011;35622;52.008;5.426;2024-01-10T05:49:51;5.80;;;3.37;;
49730;SDS011;35622;52.008;5.426;2024-01-10T05:52:18;7.83;;;3.50;;
49730;SDS011;35622;52.008;5.426;2024-01-10T05:54:44;4.90;;;2.80;;
49730;SDS011;35622;52.008;5.426;2024-01-10T05:57:10;6.37;;;3.20;;
49730;SDS011;35622;52.008;5.426;2024-01-10T05:59:35;8.63;;;3.60;;
49730;SDS011;35622;52.008;5.426;2024-01-10T06:02:02;6.10;;;3.70;;
49730;SDS011;35622;52.008;5.426;2024-01-10T06:04:28;7.87;;;4.07;;
49730;SDS011;35622;52.008;5.426;2024-01-10T06:06:56;11.57;;;5.10;;
49730;SDS011;35622;52.008;5.426;2024-01-10T06:09:23;13.20;;;6.30;;
49730;SDS011;35622;52.008;5.426;2024-01-10T06:11:49;50.33;;;19.90;;
49730;SDS011;35622;52.008;5.426;2024-01-10T06:14:14;28.63;;;12.50;;
49730;SDS011;35622;52.008;5.426;2024-01-10T06:16:40;14.20;;;6.50;;
49730;SDS011;35622;52.008;5.426;2024-01-10T06:19:06;13.73;;;5.90;;
49730;SDS011;35622;52.008;5.426;2024-01-10T06:21:31;11.60;;;5.73;;
49730;SDS011;35622;52.008;5.426;2024-01-10T06:23:57;18.43;;;8.83;;
49730;SDS011;35622;52.008;5.426;2024-01-10T06:26:22;20.93;;;8.97;;
49730;SDS011;35622;52.008;5.426;2024-01-10T06:28:48;17.03;;;7.93;;
49730;SDS011;35622;52.008;5.426;2024-01-10T06:31:14;9.90;;;4.63;;
49730;SDS011;35622;52.008;5.426;2024-01-10T06:33:39;19.83;;;8.20;;
49730;SDS011;35622;52.008;5.426;2024-01-10T06:36:05;39.47;;;15.17;;
49730;SDS011;35622;52.008;5.426;2024-01-10T06:38:31;11.20;;;5.37;;
49730;SDS011;35622;52.008;5.426;2024-01-10T06:40:56;13.93;;;4.97;;
49730;SDS011;35622;52.008;5.426;2024-01-10T06:43:22;8.40;;;3.90;;
49730;SDS011;35622;52.008;5.426;2024-01-10T06:45:48;7.33;;;3.90;;
49730;SDS011;35622;52.008;5.426;2024-01-10T06:48:14;9.03;;;4.33;;
49730;SDS011;35622;52.008;5.426;2024-01-10T06:50:40;7.03;;;3.70;;
49730;SDS011;35622;52.008;5.426;2024-01-10T06:53:05;6.17;;;3.47;;
49730;SDS011;35622;52.008;5.426;2024-01-10T06:55:31;9.77;;;3.87;;
49730;SDS011;35622;52.008;5.426;2024-01-10T06:57:56;6.03;;;3.60;;
49730;SDS011;35622;52.008;5.426;2024-01-10T07:00:22;5.83;;;3.43;;
49730;SDS011;35622;52.008;5.426;2024-01-10T07:02:48;8.57;;;3.93;;
49730;SDS011;35622;52.008;5.426;2024-01-10T07:05:14;6.13;;;3.80;;
49730;SDS011;35622;52.008;5.426;2024-01-10T07:07:43;8.37;;;3.83;;
49730;SDS011;35622;52.008;5.426;2024-01-10T07:10:09;9.30;;;4.00;;
49730;SDS011;35622;52.008;5.426;2024-01-10T07:12:35;7.63;;;4.07;;
49730;SDS011;35622;52.008;5.426;2024-01-10T07:15:01;9.10;;;3.80;;
49730;SDS011;35622;52.008;5.426;2024-01-10T07:17:28;6.87;;;3.50;;
49730;SDS011;35622;52.008;5.426;2024-01-10T07:19:53;7.60;;;3.93;;
49730;SDS011;35622;52.008;5.426;2024-01-10T07:22:21;7.57;;;4.23;;
49730;SDS011;35622;52.008;5.426;2024-01-10T07:24:47;8.53;;;4.33;;
49730;SDS011;35622;52.008;5.426;2024-01-10T07:27:13;8.73;;;4.00;;
49730;SDS011;35622;52.008;5.426;2024-01-10T07:29:39;7.13;;;3.80;;
49730;SDS011;35622;52.008;5.426;2024-01-10T07:32:08;7.27;;;3.87;;
49730;SDS011;35622;52.008;5.426;2024-01-10T07:34:37;7.83;;;4.17;;
49730;SDS011;35622;52.008;5.426;2024-01-10T07:37:03;6.13;;;3.67;;
49730;SDS011;35622;52.008;5.426;2024-01-10T07:39:28;6.47;;;3.67;;
49730;SDS011;35622;52.008;5.426;2024-01-10T07:41:55;6.40;;;4.07;;
49730;SDS011;35622;52.008;5.426;2024-01-10T07:44:20;7.53;;;4.27;;
49730;SDS011;35622;52.008;5.426;2024-01-10T07:46:46;8.80;;;3.77;;
49730;SDS011;35622;52.008;5.426;2024-01-10T07:49:12;6.00;;;3.60;;
49730;SDS011;35622;52.008;5.426;2024-01-10T07:51:38;8.40;;;4.03;;
49730;SDS011;35622;52.008;5.426;2024-01-10T07:54:03;7.50;;;4.07;;
49730;SDS011;35622;52.008;5.426;2024-01-10T07:56:29;7.77;;;4.37;;
49730;SDS011;35622;52.008;5.426;2024-01-10T07:58:55;8.03;;;4.10;;
49730;SDS011;35622;52.008;5.426;2024-01-10T08:01:21;8.63;;;4.27;;
49730;SDS011;35622;52.008;5.426;2024-01-10T08:03:47;9.57;;;4.10;;
49730;SDS011;35622;52.008;5.426;2024-01-10T08:06:12;8.67;;;4.40;;
49730;SDS011;35622;52.008;5.426;2024-01-10T08:08:38;8.90;;;4.40;;
49730;SDS011;35622;52.008;5.426;2024-01-10T08:11:04;10.47;;;4.53;;
49730;SDS011;35622;52.008;5.426;2024-01-10T08:13:30;8.00;;;4.17;;
49730;SDS011;35622;52.008;5.426;2024-01-10T08:15:56;10.73;;;6.03;;
49730;SDS011;35622;52.008;5.426;2024-01-10T08:18:21;11.80;;;6.17;;
49730;SDS011;35622;52.008;5.426;2024-01-10T08:20:48;11.57;;;5.70;;
49730;SDS011;35622;52.008;5.426;2024-01-10T08:23:13;12.77;;;6.00;;
49730;SDS011;35622;52.008;5.426;2024-01-10T08:25:39;9.00;;;4.63;;
49730;SDS011;35622;52.008;5.426;2024-01-10T08:28:05;10.03;;;5.10;;
49730;SDS011;35622;52.008;5.426;2024-01-10T08:30:31;9.50;;;5.00;;
49730;SDS011;35622;52.008;5.426;2024-01-10T08:32:57;9.13;;;5.00;;
49730;SDS011;35622;52.008;5.426;2024-01-10T08:35:24;10.37;;;5.33;;
49730;SDS011;35622;52.008;5.426;2024-01-10T08:37:50;11.77;;;5.20;;
49730;SDS011;35622;52.008;5.426;2024-01-10T08:40:15;9.73;;;5.20;;
49730;SDS011;35622;52.008;5.426;2024-01-10T08:42:42;7.40;;;4.23;;
49730;SDS011;35622;52.008;5.426;2024-01-10T08:45:08;10.17;;;5.10;;
49730;SDS011;35622;52.008;5.426;2024-01-10T08:47:36;8.90;;;4.70;;
49730;SDS011;35622;52.008;5.426;2024-01-10T08:50:02;9.30;;;5.17;;
49730;SDS011;35622;52.008;5.426;2024-01-10T08:52:30;9.97;;;4.80;;
49730;SDS011;35622;52.008;5.426;2024-01-10T08:54:56;10.23;;;5.00;;
49730;SDS011;35622;52.008;5.426;2024-01-10T08:57:22;10.13;;;5.00;;
49730;SDS011;35622;52.008;5.426;2024-01-10T08:59:47;10.33;;;4.53;;
49730;SDS011;35622;52.008;5.426;2024-01-10T09:02:13;10.07;;;5.57;;
49730;SDS011;35622;52.008;5.426;2024-01-10T09:04:39;11.07;;;4.57;;
49730;SDS011;35622;52.008;5.426;2024-01-10T09:07:05;11.23;;;5.27;;
49730;SDS011;35622;52.008;5.426;2024-01-10T09:09:31;10.43;;;5.07;;
49730;SDS011;35622;52.008;5.426;2024-01-10T09:11:57;13.03;;;5.60;;
49730;SDS011;35622;52.008;5.426;2024-01-10T09:14:23;9.87;;;4.83;;
49730;SDS011;35622;52.008;5.426;2024-01-10T09:16:48;9.20;;;4.50;;
49730;SDS011;35622;52.008;5.426;2024-01-10T09:19:14;8.83;;;5.03;;
49730;SDS011;35622;52.008;5.426;2024-01-10T09:21:40;10.20;;;5.40;;
49730;SDS011;35622;52.008;5.426;2024-01-10T09:24:05;9.63;;;5.07;;
49730;SDS011;35622;52.008;5.426;2024-01-10T09:26:34;8.10;;;4.83;;
49730;SDS011;35622;52.008;5.426;2024-01-10T09:28:59;11.67;;;5.50;;
49730;SDS011;35622;52.008;5.426;2024-01-10T09:31:25;9.97;;;5.27;;
49730;SDS011;35622;52.008;5.426;2024-01-10T09:33:51;11.80;;;5.03;;
49730;SDS011;35622;52.008;5.426;2024-01-10T09:36:16;8.63;;;5.53;;
49730;SDS011;35622;52.008;5.426;2024-01-10T09:38:42;10.53;;;5.33;;
49730;SDS011;35622;52.008;5.426;2024-01-10T09:41:07;7.67;;;4.53;;
49730;SDS011;35622;52.008;5.426;2024-01-10T09:43:36;9.03;;;4.83;;
49730;SDS011;35622;52.008;5.426;2024-01-10T09:46:01;13.37;;;5.43;;
49730;SDS011;35622;52.008;5.426;2024-01-10T09:48:27;8.07;;;4.87;;
49730;SDS011;35622;52.008;5.426;2024-01-10T09:50:55;9.90;;;5.63;;
49730;SDS011;35622;52.008;5.426;2024-01-10T09:53:21;8.93;;;5.47;;
49730;SDS011;35622;52.008;5.426;2024-01-10T09:55:49;11.00;;;5.30;;
49730;SDS011;35622;52.008;5.426;2024-01-10T09:58:14;12.70;;;5.83;;
49730;SDS011;35622;52.008;5.426;2024-01-10T10:00:40;13.93;;;5.63;;
49730;SDS011;35622;52.008;5.426;2024-01-10T10:03:09;10.33;;;4.97;;
49730;SDS011;35622;52.008;5.426;2024-01-10T10:05:37;10.50;;;5.33;;
49730;SDS011;35622;52.008;5.426;2024-01-10T10:08:06;11.57;;;5.30;;
49730;SDS011;35622;52.008;5.426;2024-01-10T10:10:32;9.03;;;4.60;;
49730;SDS011;35622;52.008;5.426;2024-01-10T10:12:58;13.30;;;5.80;;
49730;SDS011;35622;52.008;5.426;2024-01-10T10:15:24;11.03;;;5.67;;
49730;SDS011;35622;52.008;5.426;2024-01-10T10:17:53;12.30;;;6.03;;
49730;SDS011;35622;52.008;5.426;2024-01-10T10:20:20;9.53;;;4.90;;
49730;SDS011;35622;52.008;5.426;2024-01-10T10:22:58;11.53;;;5.27;;
49730;SDS011;35622;52.008;5.426;2024-01-10T10:25:42;10.07;;;5.13;;
49730;SDS011;35622;52.008;5.426;2024-01-10T10:28:09;8.87;;;5.10;;
49730;SDS011;35622;52.008;5.426;2024-01-10T10:30:34;10.93;;;5.60;;
49730;SDS011;35622;52.008;5.426;2024-01-10T10:33:04;10.73;;;5.60;;
49730;SDS011;35622;52.008;5.426;2024-01-10T10:35:33;9.77;;;5.40;;
49730;SDS011;35622;52.008;5.426;2024-01-10T10:37:59;9.20;;;5.73;;
49730;SDS011;35622;52.008;5.426;2024-01-10T10:40:25;10.37;;;5.67;;
49730;SDS011;35622;52.008;5.426;2024-01-10T10:42:56;9.10;;;5.23;;
49730;SDS011;35622;52.008;5.426;2024-01-10T10:45:23;9.83;;;5.83;;
49730;SDS011;35622;52.008;5.426;2024-01-10T10:47:58;10.97;;;5.80;;
49730;SDS011;35622;52.008;5.426;2024-01-10T10:50:28;11.47;;;5.83;;
49730;SDS011;35622;52.008;5.426;2024-01-10T10:53:02;9.37;;;5.40;;
49730;SDS011;35622;52.008;5.426;2024-01-10T10:55:28;10.60;;;5.63;;
49730;SDS011;35622;52.008;5.426;2024-01-10T10:57:55;11.90;;;5.60;;
49730;SDS011;35622;52.008;5.426;2024-01-10T11:00:22;10.03;;;5.67;;
49730;SDS011;35622;52.008;5.426;2024-01-10T11:02:55;10.32;;;6.35;;
49730;SDS011;35622;52.008;5.426;2024-01-10T11:05:22;10.18;;;6.03;;
49730;SDS011;35622;52.008;5.426;2024-01-10T11:07:49;10.02;;;6.18;;
49730;SDS011;35622;52.008;5.426;2024-01-10T11:13:03;9.57;;;5.33;;
49730;SDS011;35622;52.008;5.426;2024-01-10T11:18:51;9.33;;;5.03;;
49730;SDS011;35622;52.008;5.426;2024-01-10T11:24:32;8.37;;;4.83;;
49730;SDS011;35622;52.008;5.426;2024-01-10T11:27:07;10.33;;;5.70;;
49730;SDS011;35622;52.008;5.426;2024-01-10T11:29:37;9.70;;;4.77;;
49730;SDS011;35622;52.008;5.426;2024-01-10T11:32:04;10.53;;;5.27;;
49730;SDS011;35622;52.008;5.426;2024-01-10T11:35:03;10.27;;;5.20;;
49730;SDS011;35622;52.008;5.426;2024-01-10T11:37:41;8.53;;;5.03;;
49730;SDS011;35622;52.008;5.426;2024-01-10T11:40:09;11.37;;;5.50;;
49730;SDS011;35622;52.008;5.426;2024-01-10T11:42:41;9.90;;;5.20;;
49730;SDS011;35622;52.008;5.426;2024-01-10T11:45:08;9.80;;;5.23;;
49730;SDS011;35622;52.008;5.426;2024-01-10T11:47:34;9.53;;;5.10;;
49730;SDS011;35622;52.008;5.426;2024-01-10T11:50:02;10.17;;;5.50;;
49730;SDS011;35622;52.008;5.426;2024-01-10T11:52:32;9.70;;;5.37;;
49730;SDS011;35622;52.008;5.426;2024-01-10T11:54:59;10.70;;;5.60;;
49730;SDS011;35622;52.008;5.426;2024-01-10T11:57:25;11.73;;;5.70;;
49730;SDS011;35622;52.008;5.426;2024-01-10T11:59:53;11.03;;;5.57;;
49730;SDS011;35622;52.008;5.426;2024-01-10T12:02:19;10.20;;;5.17;;
49730;SDS011;35622;52.008;5.426;2024-01-10T12:04:47;11.87;;;5.40;;
49730;SDS011;35622;52.008;5.426;2024-01-10T12:07:13;11.47;;;5.30;;
49730;SDS011;35622;52.008;5.426;2024-01-10T12:09:39;9.53;;;5.20;;
49730;SDS011;35622;52.008;5.426;2024-01-10T12:12:06;10.03;;;5.40;;
49730;SDS011;35622;52.008;5.426;2024-01-10T12:14:33;9.03;;;5.30;;
49730;SDS011;35622;52.008;5.426;2024-01-10T12:17:00;9.83;;;5.07;;
49730;SDS011;35622;52.008;5.426;2024-01-10T12:19:25;8.57;;;4.67;;
49730;SDS011;35622;52.008;5.426;2024-01-10T12:21:52;9.73;;;5.33;;
49730;SDS011;35622;52.008;5.426;2024-01-10T12:24:18;9.03;;;5.03;;
49730;SDS011;35622;52.008;5.426;2024-01-10T12:26:48;10.13;;;5.13;;
49730;SDS011;35622;52.008;5.426;2024-01-10T12:29:17;10.60;;;4.80;;
49730;SDS011;35622;52.008;5.426;2024-01-10T12:31:45;9.30;;;4.97;;
49730;SDS011;35622;52.008;5.426;2024-01-10T12:34:11;10.20;;;5.20;;
49730;SDS011;35622;52.008;5.426;2024-01-10T12:36:36;9.70;;;5.43;;
49730;SDS011;35622;52.008;5.426;2024-01-10T12:39:03;9.23;;;5.50;;
49730;SDS011;35622;52.008;5.426;2024-01-10T12:41:31;9.30;;;5.20;;
49730;SDS011;35622;52.008;5.426;2024-01-10T12:43:58;11.07;;;5.33;;
49730;SDS011;35622;52.008;5.426;2024-01-10T12:46:27;8.63;;;4.70;;
49730;SDS011;35622;52.008;5.426;2024-01-10T12:49:03;8.23;;;4.93;;
49730;SDS011;35622;52.008;5.426;2024-01-10T12:51:32;9.20;;;4.93;;
49730;SDS011;35622;52.008;5.426;2024-01-10T12:53:59;9.97;;;4.63;;
49730;SDS011;35622;52.008;5.426;2024-01-10T12:56:25;12.80;;;5.50;;
49730;SDS011;35622;52.008;5.426;2024-01-10T12:58:51;9.43;;;5.07;;
49730;SDS011;35622;52.008;5.426;2024-01-10T13:01:17;10.37;;;5.37;;
49730;SDS011;35622;52.008;5.426;2024-01-10T13:03:43;10.87;;;5.40;;
49730;SDS011;35622;52.008;5.426;2024-01-10T13:06:09;9.20;;;5.10;;
49730;SDS011;35622;52.008;5.426;2024-01-10T13:08:34;8.20;;;4.83;;
49730;SDS011;35622;52.008;5.426;2024-01-10T13:11:00;11.47;;;5.63;;
49730;SDS011;35622;52.008;5.426;2024-01-10T13:13:26;10.57;;;5.40;;
49730;SDS011;35622;52.008;5.426;2024-01-10T13:15:52;11.40;;;5.80;;
49730;SDS011;35622;52.008;5.426;2024-01-10T13:18:18;9.13;;;5.03;;
49730;SDS011;35622;52.008;5.426;2024-01-10T13:20:44;9.70;;;5.43;;
49730;SDS011;35622;52.008;5.426;2024-01-10T13:23:10;10.80;;;5.13;;
49730;SDS011;35622;52.008;5.426;2024-01-10T13:25:36;9.80;;;5.23;;
49730;SDS011;35622;52.008;5.426;2024-01-10T13:28:03;10.60;;;5.30;;
49730;SDS011;35622;52.008;5.426;2024-01-10T13:30:29;10.57;;;5.40;;
49730;SDS011;35622;52.008;5.426;2024-01-10T13:32:55;11.33;;;5.53;;
49730;SDS011;35622;52.008;5.426;2024-01-10T13:35:20;9.43;;;5.30;;
49730;SDS011;35622;52.008;5.426;2024-01-10T13:37:47;11.53;;;5.53;;
49730;SDS011;35622;52.008;5.426;2024-01-10T13:40:13;12.97;;;5.77;;
49730;SDS011;35622;52.008;5.426;2024-01-10T13:42:38;9.10;;;5.70;;
49730;SDS011;35622;52.008;5.426;2024-01-10T13:45:05;10.87;;;6.27;;
49730;SDS011;35622;52.008;5.426;2024-01-10T13:47:32;9.33;;;5.53;;
49730;SDS011;35622;52.008;5.426;2024-01-10T13:50:00;9.97;;;5.40;;
49730;SDS011;35622;52.008;5.426;2024-01-10T13:52:26;8.67;;;5.03;;
49730;SDS011;35622;52.008;5.426;2024-01-10T13:54:51;9.53;;;5.43;;
49730;SDS011;35622;52.008;5.426;2024-01-10T13:57:17;12.00;;;6.37;;
49730;SDS011;35622;52.008;5.426;2024-01-10T13:59:43;10.30;;;5.57;;
49730;SDS011;35622;52.008;5.426;2024-01-10T14:02:09;10.33;;;5.60;;
49730;SDS011;35622;52.008;5.426;2024-01-10T14:04:35;11.50;;;6.17;;
49730;SDS011;35622;52.008;5.426;2024-01-10T14:07:01;12.60;;;5.83;;
49730;SDS011;35622;52.008;5.426;2024-01-10T14:09:29;12.20;;;5.73;;
49730;SDS011;35622;52.008;5.426;2024-01-10T14:11:55;9.50;;;5.40;;
49730;SDS011;35622;52.008;5.426;2024-01-10T14:14:21;10.57;;;5.63;;
49730;SDS011;35622;52.008;5.426;2024-01-10T14:16:47;12.03;;;5.97;;
49730;SDS011;35622;52.008;5.426;2024-01-10T14:19:13;9.90;;;5.43;;
49730;SDS011;35622;52.008;5.426;2024-01-10T14:21:38;10.50;;;5.50;;
49730;SDS011;35622;52.008;5.426;2024-01-10T14:24:04;11.00;;;6.20;;
49730;SDS011;35622;52.008;5.426;2024-01-10T14:26:30;11.47;;;6.10;;
49730;SDS011;35622;52.008;5.426;2024-01-10T14:28:55;11.13;;;6.10;;
49730;SDS011;35622;52.008;5.426;2024-01-10T14:31:22;12.03;;;6.07;;
49730;SDS011;35622;52.008;5.426;2024-01-10T14:33:47;9.93;;;5.67;;
49730;SDS011;35622;52.008;5.426;2024-01-10T14:36:13;9.27;;;5.77;;
49730;SDS011;35622;52.008;5.426;2024-01-10T14:38:40;11.40;;;5.77;;
49730;SDS011;35622;52.008;5.426;2024-01-10T14:41:09;10.83;;;5.60;;
49730;SDS011;35622;52.008;5.426;2024-01-10T14:43:36;12.47;;;6.07;;
49730;SDS011;35622;52.008;5.426;2024-01-10T14:46:02;9.87;;;5.50;;
49730;SDS011;35622;52.008;5.426;2024-01-10T14:48:30;13.43;;;6.53;;